Time;durP1;ratioP1;P1;durP2;ratioP2;P2;SDS_P1;SDS_P2;PMS_P1;PMS_P2;Temp;Humidity;BMP_temperature;BMP_pressure;BME280_temperature;BME280_humidity;BME280_pressure;Samples;Min_cycle;Max_cycle;Signal;HPM_P1;HPM_P2
2023/07/21 00:00:14;;;;;;;5.33;1.90;;;;;;;;;;6231555;23;20395;-80
2023/07/21 00:02:44;;;;;;;5.20;1.30;;;;;;;;;;6229374;23;20456;-80
2023/07/21 00:05:22;;;;;;;4.00;1.80;;;;;;;;;;6230686;23;20410;-80
2023/07/21 00:07:50;;;;;;;3.30;1.20;;;;;;;;;;6235069;23;20452;-80
2023/07/21 00:10:18;;;;;;;4.07;1.50;;;;;;;;;;6230263;23;20406;-80
2023/07/21 00:12:48;;;;;;;3.83;1.27;;;;;;;;;;6229766;23;20428;-80
2023/07/21 00:15:17;;;;;;;4.70;1.50;;;;;;;;;;6234110;23;20458;-80
2023/07/21 00:17:46;;;;;;;3.00;1.60;;;;;;;;;;6234155;23;20395;-79
2023/07/21 00:20:21;;;;;;;5.10;1.77;;;;;;;;;;6227842;23;20418;-79
2023/07/21 00:22:49;;;;;;;3.80;1.57;;;;;;;;;;6227989;23;20414;-81
2023/07/21 00:25:19;;;;;;;4.10;1.20;;;;;;;;;;6230332;23;20414;-80
2023/07/21 00:27:47;;;;;;;3.77;1.67;;;;;;;;;;6230798;23;20468;-79
2023/07/21 00:30:21;;;;;;;5.83;1.90;;;;;;;;;;6229060;23;20509;-80
2023/07/21 00:32:50;;;;;;;3.00;1.57;;;;;;;;;;6231551;23;20418;-79
2023/07/21 00:35:18;;;;;;;6.57;1.77;;;;;;;;;;6231308;23;20422;-80
2023/07/21 00:37:46;;;;;;;2.70;1.40;;;;;;;;;;6230885;23;20414;-81
2023/07/21 00:40:23;;;;;;;3.47;1.40;;;;;;;;;;6228699;23;20414;-80
2023/07/21 00:42:51;;;;;;;2.73;1.23;;;;;;;;;;6233401;23;20413;-82
2023/07/21 00:45:18;;;;;;;3.87;1.57;;;;;;;;;;6236214;23;20386;-78
2023/07/21 00:47:46;;;;;;;4.63;1.70;;;;;;;;;;6230130;23;20487;-79
2023/07/21 00:50:18;;;;;;;3.47;1.63;;;;;;;;;;6231725;23;20410;-79
2023/07/21 00:52:46;;;;;;;4.63;1.47;;;;;;;;;;6233526;23;20414;-80
2023/07/21 00:55:14;;;;;;;2.87;1.53;;;;;;;;;;6236094;23;20374;-79
2023/07/21 00:57:41;;;;;;;5.27;1.87;;;;;;;;;;6230395;23;20457;-79
2023/07/21 01:00:12;;;;;;;2.97;1.40;;;;;;;;;;6232816;23;20418;-80
2023/07/21 01:02:41;;;;;;;3.70;1.90;;;;;;;;;;6232543;23;20472;-79
2023/07/21 01:05:10;;;;;;;4.17;1.30;;;;;;;;;;6235288;23;20487;-80
2023/07/21 01:07:41;;;;;;;2.80;1.67;;;;;;;;;;6231470;23;20724;-80
2023/07/21 01:10:10;;;;;;;6.23;1.77;;;;;;;;;;6233126;23;20410;-80
2023/07/21 01:12:38;;;;;;;5.33;1.80;;;;;;;;;;6233326;23;20379;-78
2023/07/21 01:15:07;;;;;;;3.67;1.70;;;;;;;;;;6231777;23;20420;-80
2023/07/21 01:17:35;;;;;;;4.90;1.60;;;;;;;;;;6232050;23;20492;-81
2023/07/21 01:20:07;;;;;;;4.30;1.87;;;;;;;;;;6231522;23;20414;-81
2023/07/21 01:22:37;;;;;;;3.70;1.50;;;;;;;;;;6225877;23;20543;-79
2023/07/21 01:25:09;;;;;;;4.13;2.20;;;;;;;;;;6226662;23;20402;-78
2023/07/21 01:27:39;;;;;;;3.30;1.40;;;;;;;;;;6230886;23;20462;-79
2023/07/21 01:30:11;;;;;;;7.10;2.07;;;;;;;;;;6229581;23;20418;-79
2023/07/21 01:32:41;;;;;;;3.40;1.70;;;;;;;;;;6229833;23;20409;-80
2023/07/21 01:35:09;;;;;;;2.87;1.90;;;;;;;;;;6232115;23;20765;-80
2023/07/21 01:37:37;;;;;;;4.53;1.90;;;;;;;;;;6233197;23;20410;-79
2023/07/21 01:40:12;;;;;;;5.13;1.87;;;;;;;;;;6232781;23;20394;-79
2023/07/21 01:42:40;;;;;;;2.97;1.70;;;;;;;;;;6229590;23;20441;-80
2023/07/21 01:45:08;;;;;;;5.73;2.00;;;;;;;;;;6230355;23;20449;-79
2023/07/21 01:47:36;;;;;;;4.13;1.93;;;;;;;;;;6228368;23;20436;-81
2023/07/21 01:50:13;;;;;;;5.33;2.73;;;;;;;;;;6227049;23;20417;-81
2023/07/21 01:52:43;;;;;;;6.97;2.80;;;;;;;;;;6228972;23;20418;-80
2023/07/21 01:55:16;;;;;;;4.87;1.63;;;;;;;;;;6232450;23;20390;-81
2023/07/21 01:57:46;;;;;;;3.20;1.30;;;;;;;;;;6232837;23;20442;-80
2023/07/21 02:00:17;;;;;;;3.97;1.80;;;;;;;;;;6229340;23;20432;-81
2023/07/21 02:02:46;;;;;;;3.40;1.63;;;;;;;;;;6226838;23;20451;-79
2023/07/21 02:05:20;;;;;;;3.03;1.97;;;;;;;;;;6227038;23;20433;-80
2023/07/21 02:07:48;;;;;;;4.17;1.60;;;;;;;;;;6228722;23;20424;-79
2023/07/21 02:10:20;;;;;;;5.03;1.60;;;;;;;;;;6230710;23;20414;-82
2023/07/21 02:12:47;;;;;;;3.70;1.53;;;;;;;;;;6233084;23;20785;-81
2023/07/21 02:15:15;;;;;;;4.60;2.10;;;;;;;;;;6230930;23;20451;-81
2023/07/21 02:17:42;;;;;;;2.90;1.47;;;;;;;;;;6227707;23;20811;-79
2023/07/21 02:20:10;;;;;;;3.30;1.57;;;;;;;;;;6228046;23;20456;-80
2023/07/21 02:22:40;;;;;;;2.83;1.47;;;;;;;;;;6230713;23;20437;-81
2023/07/21 02:25:09;;;;;;;3.37;1.60;;;;;;;;;;6234122;23;20382;-81
2023/07/21 02:27:38;;;;;;;4.33;2.30;;;;;;;;;;6233231;23;20418;-81
2023/07/21 02:30:09;;;;;;;5.60;1.70;;;;;;;;;;6227806;23;20414;-80
2023/07/21 02:32:37;;;;;;;2.70;1.57;;;;;;;;;;6226460;23;20501;-81
2023/07/21 02:35:05;;;;;;;2.93;1.37;;;;;;;;;;6231418;23;20436;-81
2023/07/21 02:37:33;;;;;;;2.70;1.60;;;;;;;;;;6235569;23;20435;-81
2023/07/21 02:40:00;;;;;;;4.57;1.90;;;;;;;;;;6236700;23;20395;-78
2023/07/21 02:42:28;;;;;;;2.83;1.57;;;;;;;;;;6233536;23;20499;-78
2023/07/21 02:44:58;;;;;;;3.60;1.70;;;;;;;;;;6228231;23;20418;-79
2023/07/21 02:47:26;;;;;;;2.73;1.60;;;;;;;;;;6233960;23;20732;-81
2023/07/21 02:49:54;;;;;;;4.13;1.97;;;;;;;;;;6238075;23;20453;-81
2023/07/21 02:52:21;;;;;;;3.10;1.50;;;;;;;;;;6228912;23;20374;-79
2023/07/21 02:54:49;;;;;;;5.37;1.80;;;;;;;;;;6230336;23;20417;-79
2023/07/21 02:57:17;;;;;;;3.83;1.80;;;;;;;;;;6235216;23;20437;-80
2023/07/21 02:59:44;;;;;;;4.47;1.60;;;;;;;;;;6234736;23;20428;-79
2023/07/21 03:02:14;;;;;;;3.73;2.60;;;;;;;;;;6230551;23;20445;-80
2023/07/21 03:04:42;;;;;;;3.03;1.60;;;;;;;;;;6231698;23;20417;-79
2023/07/21 03:07:11;;;;;;;2.80;1.40;;;;;;;;;;6228692;23;20426;-81
2023/07/21 03:09:39;;;;;;;2.73;1.57;;;;;;;;;;6224807;23;20401;-81
2023/07/21 03:12:07;;;;;;;8.67;1.77;;;;;;;;;;6232272;23;20410;-81
2023/07/21 03:14:35;;;;;;;12.00;2.43;;;;;;;;;;6225531;23;20413;-79
2023/07/21 03:17:03;;;;;;;5.30;1.73;;;;;;;;;;6226473;23;20416;-79
2023/07/21 03:19:32;;;;;;;7.50;1.80;;;;;;;;;;6232882;23;20460;-80
2023/07/21 03:22:00;;;;;;;2.67;1.70;;;;;;;;;;6227430;23;20430;-80
2023/07/21 03:24:27;;;;;;;3.93;2.07;;;;;;;;;;6228101;23;20416;-79
2023/07/21 03:26:55;;;;;;;5.37;2.20;;;;;;;;;;6232618;23;20414;-78
2023/07/21 03:29:23;;;;;;;2.77;1.50;;;;;;;;;;6233226;23;20889;-80
2023/07/21 03:31:51;;;;;;;5.83;2.00;;;;;;;;;;6228130;23;20544;-79
2023/07/21 03:34:18;;;;;;;3.60;1.87;;;;;;;;;;6225970;23;20433;-80
2023/07/21 03:36:50;;;;;;;2.87;1.70;;;;;;;;;;6232802;23;20386;-80
2023/07/21 03:39:17;;;;;;;4.10;2.23;;;;;;;;;;6233806;23;20417;-81
2023/07/21 03:41:45;;;;;;;3.87;1.90;;;;;;;;;;6228622;23;20446;-80
2023/07/21 03:44:13;;;;;;;4.93;2.33;;;;;;;;;;6229492;23;20481;-80
2023/07/21 03:46:41;;;;;;;4.97;2.20;;;;;;;;;;6229094;23;20425;-79
2023/07/21 03:49:11;;;;;;;3.87;2.13;;;;;;;;;;6229426;23;20715;-78
2023/07/21 03:51:40;;;;;;;4.60;1.70;;;;;;;;;;6228596;23;20665;-80
2023/07/21 03:54:13;;;;;;;3.60;1.73;;;;;;;;;;6232471;23;20406;-78
2023/07/21 03:56:40;;;;;;;2.50;1.60;;;;;;;;;;6233058;23;20446;-78
2023/07/21 03:59:08;;;;;;;4.73;1.90;;;;;;;;;;6228475;23;20513;-80
2023/07/21 04:01:35;;;;;;;2.53;1.50;;;;;;;;;;6231156;23;20446;-80
2023/07/21 04:04:03;;;;;;;4.43;2.00;;;;;;;;;;6229120;23;20494;-79
2023/07/21 04:06:30;;;;;;;3.33;1.60;;;;;;;;;;6226523;23;20654;-78
2023/07/21 04:08:58;;;;;;;2.57;1.40;;;;;;;;;;6228802;23;20406;-79
2023/07/21 04:11:27;;;;;;;4.53;1.70;;;;;;;;;;6228892;23;20426;-80
2023/07/21 04:13:56;;;;;;;4.03;1.80;;;;;;;;;;6228990;23;20870;-79
2023/07/21 04:16:23;;;;;;;3.63;2.07;;;;;;;;;;6228573;23;20406;-80
2023/07/21 04:18:50;;;;;;;3.50;2.17;;;;;;;;;;6226627;23;20386;-80
2023/07/21 04:21:18;;;;;;;4.30;2.00;;;;;;;;;;6230730;23;20410;-80
2023/07/21 04:23:45;;;;;;;3.30;2.10;;;;;;;;;;6231452;23;20424;-80
2023/07/21 04:26:15;;;;;;;4.60;1.97;;;;;;;;;;6227659;23;20425;-81
2023/07/21 04:28:45;;;;;;;4.13;2.03;;;;;;;;;;6229550;23;20529;-79
2023/07/21 04:31:12;;;;;;;2.80;1.57;;;;;;;;;;6230421;23;20464;-78
2023/07/21 04:33:41;;;;;;;4.03;2.30;;;;;;;;;;6227779;23;20382;-80
2023/07/21 04:36:08;;;;;;;3.03;1.80;;;;;;;;;;6229633;23;20482;-79
2023/07/21 04:38:36;;;;;;;4.00;2.07;;;;;;;;;;6231024;23;20410;-80
2023/07/21 04:41:03;;;;;;;4.17;2.33;;;;;;;;;;6229695;23;20434;-78
2023/07/21 04:43:30;;;;;;;3.23;2.07;;;;;;;;;;6230339;23;20461;-80
2023/07/21 04:45:59;;;;;;;6.43;1.93;;;;;;;;;;6232849;23;20463;-80
2023/07/21 04:48:27;;;;;;;5.40;1.73;;;;;;;;;;6233727;23;20435;-82
2023/07/21 04:50:56;;;;;;;6.63;3.73;;;;;;;;;;6234816;23;20397;-79
2023/07/21 04:53:23;;;;;;;5.43;1.83;;;;;;;;;;6228078;23;20481;-79
2023/07/21 04:55:51;;;;;;;3.03;1.40;;;;;;;;;;6229308;23;20390;-80
2023/07/21 04:58:18;;;;;;;3.37;1.90;;;;;;;;;;6231069;23;20436;-80
2023/07/21 05:00:46;;;;;;;4.10;2.10;;;;;;;;;;6231502;23;20429;-79
2023/07/21 05:03:15;;;;;;;6.13;2.17;;;;;;;;;;6233299;23;20496;-80
2023/07/21 05:05:43;;;;;;;5.00;2.20;;;;;;;;;;6228508;23;20449;-81
2023/07/21 05:08:10;;;;;;;3.37;2.00;;;;;;;;;;6230215;23;20425;-79
2023/07/21 05:10:38;;;;;;;3.07;1.80;;;;;;;;;;6230534;23;20447;-80
2023/07/21 05:13:07;;;;;;;5.90;1.90;;;;;;;;;;6229723;23;20430;-79
2023/07/21 05:15:35;;;;;;;7.70;2.87;;;;;;;;;;6228344;23;20425;-79
2023/07/21 05:18:03;;;;;;;3.10;2.07;;;;;;;;;;6229467;23;20414;-80
2023/07/21 05:20:32;;;;;;;4.90;2.53;;;;;;;;;;6225813;23;20773;-80
2023/07/21 05:23:00;;;;;;;3.57;2.10;;;;;;;;;;6227585;23;20442;-79
2023/07/21 05:25:33;;;;;;;5.30;2.53;;;;;;;;;;6221879;23;20425;-79
2023/07/21 05:28:01;;;;;;;5.80;2.03;;;;;;;;;;6226692;23;20449;-80
2023/07/21 05:30:28;;;;;;;6.30;1.93;;;;;;;;;;6230188;23;20614;-80
2023/07/21 05:32:57;;;;;;;4.00;2.03;;;;;;;;;;6226031;23;20671;-79
2023/07/21 05:35:26;;;;;;;5.90;2.23;;;;;;;;;;6228122;23;20382;-79
2023/07/21 05:37:55;;;;;;;6.70;2.40;;;;;;;;;;6228862;23;20379;-79
2023/07/21 05:40:23;;;;;;;5.60;3.10;;;;;;;;;;6228268;23;20413;-80
2023/07/21 05:42:51;;;;;;;5.60;2.13;;;;;;;;;;6229839;23;20430;-80
2023/07/21 05:45:18;;;;;;;4.67;2.07;;;;;;;;;;6227633;23;20859;-80
2023/07/21 05:47:46;;;;;;;4.37;2.20;;;;;;;;;;6230941;23;20429;-79
2023/07/21 05:50:17;;;;;;;4.07;3.10;;;;;;;;;;6231079;23;20615;-80
2023/07/21 05:52:45;;;;;;;3.80;2.37;;;;;;;;;;6225670;23;20430;-80
2023/07/21 05:55:14;;;;;;;8.77;2.80;;;;;;;;;;6228649;23;20445;-80
2023/07/21 05:57:41;;;;;;;3.30;1.83;;;;;;;;;;6228035;23;20442;-79
2023/07/21 06:00:12;;;;;;;2.93;1.83;;;;;;;;;;6225255;23;21111;-79
2023/07/21 06:02:43;;;;;;;3.53;2.27;;;;;;;;;;6230092;23;20717;-79
2023/07/21 06:05:12;;;;;;;2.77;1.90;;;;;;;;;;6229471;23;20458;-81
2023/07/21 06:07:44;;;;;;;4.90;2.13;;;;;;;;;;6225413;23;20545;-81
2023/07/21 06:10:16;;;;;;;7.53;2.00;;;;;;;;;;6225736;23;20902;-79
2023/07/21 06:12:45;;;;;;;4.97;2.17;;;;;;;;;;6228196;23;20410;-80
2023/07/21 06:15:14;;;;;;;4.60;2.50;;;;;;;;;;6219560;23;20534;-79
2023/07/21 06:17:44;;;;;;;5.90;2.73;;;;;;;;;;6229639;23;20758;-80
2023/07/21 06:20:20;;;;;;;7.13;2.40;;;;;;;;;;6230605;23;20507;-79
2023/07/21 06:22:48;;;;;;;3.97;2.30;;;;;;;;;;6229772;23;20472;-81
2023/07/21 06:25:18;;;;;;;7.33;2.30;;;;;;;;;;6231068;23;20414;-82
2023/07/21 06:27:48;;;;;;;6.93;2.70;;;;;;;;;;6231950;23;20484;-80
2023/07/21 06:30:16;;;;;;;3.73;1.90;;;;;;;;;;6230992;23;20457;-81
2023/07/21 06:32:47;;;;;;;5.20;2.63;;;;;;;;;;6231658;23;20428;-80
2023/07/21 06:35:14;;;;;;;4.50;2.97;;;;;;;;;;6233118;23;20371;-81
2023/07/21 06:37:42;;;;;;;6.57;2.80;;;;;;;;;;6222149;23;20382;-80
2023/07/21 06:40:10;;;;;;;4.73;2.70;;;;;;;;;;6223286;23;20468;-80
2023/07/21 06:42:38;;;;;;;7.90;2.73;;;;;;;;;;6223005;23;20478;-80
2023/07/21 06:45:11;;;;;;;5.30;2.87;;;;;;;;;;6223079;23;20446;-80
2023/07/21 06:47:41;;;;;;;5.67;2.33;;;;;;;;;;6225018;23;20425;-81
2023/07/21 06:50:09;;;;;;;5.43;2.33;;;;;;;;;;6226074;23;20441;-80
2023/07/21 06:52:40;;;;;;;4.33;2.10;;;;;;;;;;6222983;23;20473;-81
2023/07/21 06:55:08;;;;;;;5.03;2.40;;;;;;;;;;6223433;23;20426;-80
2023/07/21 06:57:35;;;;;;;4.00;2.30;;;;;;;;;;6227327;23;20465;-81
2023/07/21 07:00:12;;;;;;;4.43;2.07;;;;;;;;;;6227227;23;20509;-79
2023/07/21 07:02:48;;;;;;;10.13;2.27;;;;;;;;;;6223045;23;20434;-79
2023/07/21 07:05:20;;;;;;;5.70;2.30;;;;;;;;;;6224169;23;20804;-80
2023/07/21 07:07:53;;;;;;;5.40;2.70;;;;;;;;;;6227334;23;20386;-80
2023/07/21 07:10:39;;;;;;;3.77;1.67;;;;;;;;;;6227563;23;20508;-79
2023/07/21 07:13:08;;;;;;;4.30;2.60;;;;;;;;;;6224468;23;20457;-78
2023/07/21 07:15:37;;;;;;;3.83;2.00;;;;;;;;;;6229055;23;20636;-80
2023/07/21 07:18:10;;;;;;;13.90;3.47;;;;;;;;;;6227917;23;20418;-80
2023/07/21 07:20:40;;;;;;;4.50;1.80;;;;;;;;;;6223619;23;20418;-81
2023/07/21 07:23:09;;;;;;;3.23;2.00;;;;;;;;;;6227239;23;20441;-79
2023/07/21 07:25:42;;;;;;;4.30;2.47;;;;;;;;;;6224776;23;20413;-79
2023/07/21 07:28:13;;;;;;;4.27;1.80;;;;;;;;;;6226397;23;20500;-80
2023/07/21 07:30:48;;;;;;;5.43;2.70;;;;;;;;;;6229472;23;20501;-80
2023/07/21 07:33:18;;;;;;;4.10;3.20;;;;;;;;;;6226805;23;20409;-80
2023/07/21 07:35:52;;;;;;;5.27;3.37;;;;;;;;;;6226379;23;20421;-79
2023/07/21 07:38:20;;;;;;;4.00;2.27;;;;;;;;;;6228345;23;20430;-81
2023/07/21 07:40:48;;;;;;;4.20;1.93;;;;;;;;;;6228187;23;20410;-80
2023/07/21 07:43:22;;;;;;;3.27;1.97;;;;;;;;;;6227807;23;20445;-81
2023/07/21 07:45:50;;;;;;;4.30;2.37;;;;;;;;;;6226048;23;20831;-79
2023/07/21 07:48:22;;;;;;;4.23;2.10;;;;;;;;;;6224459;23;20387;-79
2023/07/21 07:50:51;;;;;;;4.30;1.70;;;;;;;;;;6229188;23;20397;-80
2023/07/21 07:53:19;;;;;;;5.77;2.53;;;;;;;;;;6227111;23;20390;-80
2023/07/21 07:55:54;;;;;;;3.83;2.20;;;;;;;;;;6222912;23;20708;-78
2023/07/21 07:58:22;;;;;;;4.13;2.20;;;;;;;;;;6225230;23;20485;-79
2023/07/21 08:00:50;;;;;;;5.03;2.67;;;;;;;;;;6228357;23;20845;-79
2023/07/21 08:03:25;;;;;;;4.47;2.13;;;;;;;;;;6221896;23;20435;-79
2023/07/21 08:05:54;;;;;;;5.33;2.33;;;;;;;;;;6229186;23;20406;-79
2023/07/21 08:08:22;;;;;;;5.67;2.73;;;;;;;;;;6222962;23;20478;-79
2023/07/21 08:10:52;;;;;;;4.07;2.63;;;;;;;;;;6222849;23;20418;-79
2023/07/21 08:13:27;;;;;;;7.57;4.33;;;;;;;;;;6223360;23;20466;-79
2023/07/21 08:16:06;;;;;;;3.93;2.30;;;;;;;;;;6223322;23;20414;-79
2023/07/21 08:18:42;;;;;;;5.87;3.27;;;;;;;;;;6227034;23;20398;-79
2023/07/21 08:21:22;;;;;;;11.70;4.13;;;;;;;;;;6222745;23;20434;-80
2023/07/21 08:23:54;;;;;;;8.67;2.77;;;;;;;;;;6228888;23;20446;-80
2023/07/21 08:26:23;;;;;;;4.27;2.67;;;;;;;;;;6226235;23;20421;-79
2023/07/21 08:28:52;;;;;;;5.37;3.00;;;;;;;;;;6222835;23;20417;-79
2023/07/21 08:31:20;;;;;;;2.93;2.13;;;;;;;;;;6224338;23;20387;-79
2023/07/21 08:33:51;;;;;;;5.57;2.80;;;;;;;;;;6226967;23;20393;-78
2023/07/21 08:36:19;;;;;;;4.57;2.00;;;;;;;;;;6224195;23;20481;-79
2023/07/21 08:38:49;;;;;;;3.60;2.33;;;;;;;;;;6226676;23;20414;-79
2023/07/21 08:41:20;;;;;;;4.60;2.53;;;;;;;;;;6226370;23;20774;-80
2023/07/21 08:43:52;;;;;;;4.20;2.60;;;;;;;;;;6223051;23;20445;-79
2023/07/21 08:46:25;;;;;;;3.87;2.40;;;;;;;;;;6223986;23;20424;-79
2023/07/21 08:48:55;;;;;;;7.50;2.57;;;;;;;;;;6222353;23;20428;-79
2023/07/21 08:51:38;;;;;;;5.23;2.60;;;;;;;;;;6222437;23;20693;-79
2023/07/21 08:54:12;;;;;;;4.17;2.60;;;;;;;;;;6217036;23;21108;-80
2023/07/21 08:56:40;;;;;;;4.03;2.60;;;;;;;;;;6222564;23;20525;-79
2023/07/21 08:59:08;;;;;;;3.20;2.03;;;;;;;;;;6218987;23;20414;-79
2023/07/21 09:01:35;;;;;;;2.80;1.80;;;;;;;;;;6222387;23;20418;-78
2023/07/21 09:04:17;;;;;;;3.50;1.80;;;;;;;;;;6223942;23;20521;-78
2023/07/21 09:06:52;;;;;;;3.27;2.27;;;;;;;;;;6219707;23;20386;-78
2023/07/21 09:09:20;;;;;;;4.93;2.13;;;;;;;;;;6226193;23;20417;-80
2023/07/21 09:12:20;;;;;;;3.17;2.10;;;;;;;;;;6227451;23;20453;-79
2023/07/21 09:14:48;;;;;;;3.60;2.33;;;;;;;;;;6225003;23;20875;-79
2023/07/21 09:17:16;;;;;;;3.03;1.80;;;;;;;;;;6229691;23;20394;-79
2023/07/21 09:19:47;;;;;;;4.40;1.90;;;;;;;;;;6228491;23;20941;-78
2023/07/21 09:22:15;;;;;;;3.20;1.50;;;;;;;;;;6225980;23;20393;-79
2023/07/21 09:24:50;;;;;;;3.57;1.70;;;;;;;;;;6226923;23;20496;-80
2023/07/21 09:27:22;;;;;;;2.80;1.37;;;;;;;;;;6224881;23;21109;-78
2023/07/21 09:30:08;;;;;;;3.37;1.43;;;;;;;;;;6221686;23;20832;-78
2023/07/21 09:32:42;;;;;;;2.87;1.17;;;;;;;;;;6227840;23;20398;-79
2023/07/21 09:35:12;;;;;;;2.87;1.17;;;;;;;;;;6221885;23;20410;-78
2023/07/21 09:37:41;;;;;;;3.73;1.33;;;;;;;;;;6226927;23;20445;-79
2023/07/21 09:40:11;;;;;;;5.20;1.63;;;;;;;;;;6226842;23;20772;-79
2023/07/21 09:42:42;;;;;;;2.43;1.20;;;;;;;;;;6222919;23;20863;-79
2023/07/21 09:45:15;;;;;;;3.03;1.43;;;;;;;;;;6222704;23;20895;-79
2023/07/21 09:47:45;;;;;;;2.77;1.10;;;;;;;;;;6220629;23;20418;-79
2023/07/21 09:50:17;;;;;;;3.20;1.40;;;;;;;;;;6222544;23;20424;-79
2023/07/21 09:52:48;;;;;;;2.37;1.30;;;;;;;;;;6226445;23;20429;-79
2023/07/21 09:55:19;;;;;;;3.80;1.53;;;;;;;;;;6221933;23;20501;-79
2023/07/21 09:57:54;;;;;;;4.37;1.60;;;;;;;;;;6224063;23;20442;-79
2023/07/21 10:00:28;;;;;;;3.43;1.00;;;;;;;;;;6225681;23;20408;-78
2023/07/21 10:03:00;;;;;;;3.40;1.17;;;;;;;;;;6222373;23;20467;-78
2023/07/21 10:05:38;;;;;;;4.67;3.13;;;;;;;;;;6225068;23;20443;-78
2023/07/21 10:08:09;;;;;;;3.93;1.90;;;;;;;;;;6221192;23;20815;-79
2023/07/21 10:10:41;;;;;;;4.57;1.40;;;;;;;;;;6220153;23;20406;-78
2023/07/21 10:13:10;;;;;;;3.17;1.47;;;;;;;;;;6225395;23;20421;-78
2023/07/21 10:15:40;;;;;;;2.47;1.10;;;;;;;;;;6220487;23;20403;-77
2023/07/21 10:18:11;;;;;;;2.40;1.20;;;;;;;;;;6222945;23;20445;-77
2023/07/21 10:20:44;;;;;;;3.90;1.87;;;;;;;;;;6223800;23;20418;-78
2023/07/21 10:23:14;;;;;;;2.13;1.20;;;;;;;;;;6223074;23;20398;-77
2023/07/21 10:26:08;;;;;;;2.80;1.70;;;;;;;;;;6219554;23;20418;-79
2023/07/21 10:28:42;;;;;;;3.30;2.50;;;;;;;;;;6220753;23;20444;-78
2023/07/21 10:31:38;;;;;;;2.27;1.10;;;;;;;;;;6220523;23;20418;-78
2023/07/21 10:34:09;;;;;;;2.60;1.10;;;;;;;;;;6224095;23;20374;-77
2023/07/21 10:36:42;;;;;;;2.53;1.20;;;;;;;;;;6219124;23;20470;-78
2023/07/21 10:39:12;;;;;;;1.90;1.03;;;;;;;;;;6224379;23;20443;-78
2023/07/21 10:41:40;;;;;;;2.83;0.90;;;;;;;;;;6224125;23;20410;-78
2023/07/21 10:44:16;;;;;;;2.87;1.00;;;;;;;;;;6223599;23;20557;-79
2023/07/21 10:46:45;;;;;;;2.63;1.40;;;;;;;;;;6192812;23;20724;-79
2023/07/21 10:49:13;;;;;;;2.80;1.43;;;;;;;;;;6215407;23;20398;-78
2023/07/21 10:51:42;;;;;;;2.70;1.83;;;;;;;;;;6220833;23;20708;-81
2023/07/21 10:54:11;;;;;;;2.20;1.40;;;;;;;;;;6222988;23;20406;-78
2023/07/21 10:56:41;;;;;;;6.80;2.83;;;;;;;;;;6223027;23;20441;-78
2023/07/21 10:59:15;;;;;;;2.33;1.10;;;;;;;;;;6225663;23;20460;-78
2023/07/21 11:01:54;;;;;;;4.50;1.47;;;;;;;;;;6226128;23;20414;-81
2023/07/21 11:04:23;;;;;;;3.27;1.70;;;;;;;;;;6223911;23;20501;-81
2023/07/21 11:06:53;;;;;;;2.30;1.10;;;;;;;;;;6225711;23;20446;-79
2023/07/21 11:09:21;;;;;;;2.13;1.10;;;;;;;;;;6225365;23;20389;-78
2023/07/21 11:11:51;;;;;;;2.00;1.03;;;;;;;;;;6226081;23;20410;-79
2023/07/21 11:14:20;;;;;;;2.63;1.60;;;;;;;;;;6221884;23;20543;-79
2023/07/21 11:16:54;;;;;;;4.10;2.20;;;;;;;;;;6222870;23;20421;-78
2023/07/21 11:19:22;;;;;;;2.53;1.63;;;;;;;;;;6223770;23;20405;-77
2023/07/21 11:21:50;;;;;;;2.60;1.47;;;;;;;;;;6224803;23;20402;-79
2023/07/21 11:24:19;;;;;;;2.57;1.43;;;;;;;;;;6224177;23;20449;-79
2023/07/21 11:26:49;;;;;;;2.37;1.17;;;;;;;;;;6221409;23;20399;-78
2023/07/21 11:29:18;;;;;;;2.80;1.40;;;;;;;;;;6220205;23;20509;-79
2023/07/21 11:31:46;;;;;;;3.10;1.73;;;;;;;;;;6221490;23;20424;-78
2023/07/21 11:34:21;;;;;;;3.57;1.80;;;;;;;;;;6220532;23;20410;-80
2023/07/21 11:36:55;;;;;;;3.37;1.90;;;;;;;;;;6216239;23;20501;-80
2023/07/21 11:39:27;;;;;;;2.30;1.33;;;;;;;;;;6216042;23;20402;-79
2023/07/21 11:41:55;;;;;;;1.93;1.00;;;;;;;;;;6216202;23;20413;-76
2023/07/21 11:44:24;;;;;;;3.00;1.30;;;;;;;;;;6215784;23;20464;-79
2023/07/21 11:46:57;;;;;;;3.57;1.73;;;;;;;;;;6221362;23;20383;-78
2023/07/21 11:49:25;;;;;;;3.90;1.47;;;;;;;;;;6219111;23;20418;-78
2023/07/21 11:51:53;;;;;;;4.23;1.20;;;;;;;;;;6216628;23;20414;-79
2023/07/21 11:54:22;;;;;;;4.30;1.80;;;;;;;;;;6224026;23;20406;-78
2023/07/21 11:56:53;;;;;;;4.33;2.50;;;;;;;;;;6223144;23;20629;-78
2023/07/21 11:59:21;;;;;;;3.90;1.43;;;;;;;;;;6220125;23;20397;-77
2023/07/21 12:01:49;;;;;;;2.60;1.57;;;;;;;;;;6217257;23;20408;-80
2023/07/21 12:04:18;;;;;;;3.00;1.90;;;;;;;;;;6223992;23;20516;-79
2023/07/21 12:06:45;;;;;;;13.43;12.00;;;;;;;;;;6220574;23;20812;-81
2023/07/21 12:09:16;;;;;;;15.53;12.17;;;;;;;;;;6219289;23;20414;-79
2023/07/21 12:11:49;;;;;;;2.50;1.33;;;;;;;;;;6225744;23;20403;-80
2023/07/21 12:14:19;;;;;;;2.10;1.13;;;;;;;;;;6224642;23;20386;-78
2023/07/21 12:16:47;;;;;;;2.60;1.47;;;;;;;;;;6218264;23;20401;-79
2023/07/21 12:19:15;;;;;;;2.73;1.83;;;;;;;;;;6224458;23;20414;-78
2023/07/21 12:21:42;;;;;;;3.47;2.00;;;;;;;;;;6223410;23;20414;-79
2023/07/21 12:24:28;;;;;;;2.33;1.17;;;;;;;;;;6225035;23;20481;-78
2023/07/21 12:27:04;;;;;;;3.40;1.10;;;;;;;;;;6220995;23;20414;-79
2023/07/21 12:29:33;;;;;;;5.07;1.90;;;;;;;;;;6222352;23;20503;-79
2023/07/21 12:32:01;;;;;;;2.67;1.33;;;;;;;;;;6225954;23;20398;-80
2023/07/21 12:34:29;;;;;;;6.40;2.10;;;;;;;;;;6227133;23;20414;-79
2023/07/21 12:36:57;;;;;;;2.53;1.20;;;;;;;;;;6231977;23;20477;-80
2023/07/21 12:39:25;;;;;;;2.87;1.17;;;;;;;;;;6230548;23;20433;-79
2023/07/21 12:42:03;;;;;;;2.60;1.27;;;;;;;;;;6228270;23;20414;-79
2023/07/21 12:44:40;;;;;;;2.10;1.10;;;;;;;;;;6223282;23;20437;-79
2023/07/21 12:47:11;;;;;;;4.40;2.20;;;;;;;;;;6226082;23;20529;-81
2023/07/21 12:49:57;;;;;;;2.43;1.20;;;;;;;;;;6230152;23;20401;-80
2023/07/21 12:52:55;;;;;;;3.27;1.33;;;;;;;;;;6233798;23;20414;-78
2023/07/21 13:01:55;;;;;;;3.13;1.43;;;;;;;;;;6228210;23;20429;-78
2023/07/21 13:04:29;;;;;;;1.90;1.03;;;;;;;;;;6228216;23;20438;-78
2023/07/21 13:06:57;;;;;;;4.23;1.57;;;;;;;;;;6227999;23;20453;-79
2023/07/21 13:09:30;;;;;;;2.17;0.93;;;;;;;;;;6230313;23;20422;-79
2023/07/21 13:12:03;;;;;;;2.20;1.40;;;;;;;;;;6227072;23;20510;-79
2023/07/21 13:14:31;;;;;;;2.77;1.67;;;;;;;;;;6227019;23;20617;-78
2023/07/21 13:17:16;;;;;;;3.97;1.23;;;;;;;;;;6225492;23;20395;-78
2023/07/21 13:19:44;;;;;;;3.10;1.47;;;;;;;;;;6228814;23;20418;-79
2023/07/21 13:22:19;;;;;;;2.77;1.50;;;;;;;;;;6222267;23;20428;-79
2023/07/21 13:24:51;;;;;;;1.80;1.00;;;;;;;;;;6221443;23;20441;-77
2023/07/21 13:27:22;;;;;;;3.17;1.70;;;;;;;;;;6221932;23;20428;-78
2023/07/21 13:29:51;;;;;;;2.60;1.50;;;;;;;;;;6223559;23;20445;-79
2023/07/21 13:32:20;;;;;;;3.40;1.90;;;;;;;;;;6226026;23;20399;-79
2023/07/21 13:34:54;;;;;;;2.17;1.20;;;;;;;;;;6223475;23;20383;-80
2023/07/21 13:37:24;;;;;;;2.50;1.40;;;;;;;;;;6224116;23;20414;-79
2023/07/21 13:39:52;;;;;;;5.90;1.60;;;;;;;;;;6224337;23;20517;-80
2023/07/21 13:42:25;;;;;;;2.50;1.40;;;;;;;;;;6223908;23;20425;-79
2023/07/21 13:44:58;;;;;;;4.07;1.20;;;;;;;;;;6219779;23;20450;-78
2023/07/21 13:47:44;;;;;;;6.10;1.03;;;;;;;;;;6225048;23;20482;-77
2023/07/21 13:50:20;;;;;;;2.53;1.07;;;;;;;;;;6224646;23;20667;-80
2023/07/21 13:52:48;;;;;;;2.63;1.30;;;;;;;;;;6221768;23;20489;-78
2023/07/21 13:55:19;;;;;;;4.70;1.37;;;;;;;;;;6224085;23;20438;-79
2023/07/21 13:57:49;;;;;;;2.90;1.43;;;;;;;;;;6225996;23;21159;-79
2023/07/21 14:00:49;;;;;;;3.93;1.30;;;;;;;;;;6225900;23;20418;-80
2023/07/21 14:03:21;;;;;;;2.10;1.10;;;;;;;;;;6227382;23;20418;-80
2023/07/21 14:06:01;;;;;;;3.73;1.40;;;;;;;;;;6226086;23;20442;-78
2023/07/21 14:08:29;;;;;;;3.53;2.60;;;;;;;;;;6224033;23;20428;-79
2023/07/21 14:10:59;;;;;;;2.30;1.10;;;;;;;;;;6225914;23;20471;-78
2023/07/21 14:13:30;;;;;;;3.10;1.60;;;;;;;;;;6224782;23;20703;-78
2023/07/21 14:16:01;;;;;;;2.30;0.93;;;;;;;;;;6221290;23;20501;-78
2023/07/21 14:18:33;;;;;;;7.13;1.13;;;;;;;;;;6223567;23;20437;-79
2023/07/21 14:21:10;;;;;;;2.93;1.30;;;;;;;;;;6222771;23;20639;-79
2023/07/21 14:23:40;;;;;;;2.97;1.50;;;;;;;;;;6224301;23;20398;-80
2023/07/21 14:26:08;;;;;;;3.07;1.20;;;;;;;;;;6224429;23;20430;-79
2023/07/21 14:28:38;;;;;;;2.67;1.20;;;;;;;;;;6223115;23;20395;-79
2023/07/21 14:31:07;;;;;;;3.40;1.80;;;;;;;;;;6228438;23;20417;-80
2023/07/21 14:33:43;;;;;;;2.07;1.30;;;;;;;;;;6223067;23;20700;-81
2023/07/21 14:36:14;;;;;;;2.07;1.07;;;;;;;;;;6227685;23;20496;-79
2023/07/21 14:38:42;;;;;;;3.20;1.70;;;;;;;;;;6225053;23;20418;-79
2023/07/21 14:41:15;;;;;;;2.27;1.17;;;;;;;;;;6228295;23;20383;-79
2023/07/21 14:43:43;;;;;;;4.60;2.40;;;;;;;;;;6228401;23;20408;-78
2023/07/21 14:46:11;;;;;;;2.10;1.20;;;;;;;;;;6226195;23;20441;-80
2023/07/21 14:48:46;;;;;;;2.53;1.00;;;;;;;;;;6225803;23;20418;-79
2023/07/21 14:51:17;;;;;;;2.83;1.40;;;;;;;;;;6228282;23;20424;-81
2023/07/21 14:53:47;;;;;;;2.63;1.83;;;;;;;;;;6225993;23;20521;-80
2023/07/21 14:56:20;;;;;;;1.83;0.90;;;;;;;;;;6226067;23;20441;-79
2023/07/21 14:59:07;;;;;;;1.90;1.10;;;;;;;;;;6224429;23;20433;-79
2023/07/21 15:04:41;;;;;;;4.40;2.70;;;;;;;;;;6226426;23;20420;-80
2023/07/21 15:07:09;;;;;;;2.90;1.47;;;;;;;;;;6227780;23;20410;-80
2023/07/21 15:09:37;;;;;;;3.50;1.60;;;;;;;;;;6230547;23;20421;-81
2023/07/21 15:12:06;;;;;;;4.10;1.90;;;;;;;;;;6228984;23;20409;-78